Time;durP1;ratioP1;P1;durP2;ratioP2;P2;SDS_P1;SDS_P2;PMS_P1;PMS_P2;Temp;Humidity;BMP_temperature;BMP_pressure;BME280_temperature;BME280_humidity;BME280_pressure;Samples;Min_cycle;Max_cycle;Signal;HPM_P1;HPM_P2
2023/12/16 00:01:07;;;;;;;13.40;5.35;;;8.90;99.90;;;;;;4143736;28;21697;-74
2023/12/16 00:03:09;;;;;;;13.10;5.25;;;8.90;99.90;;;;;;4166706;28;20057;-73
2023/12/16 00:05:10;;;;;;;12.55;5.05;;;8.90;99.90;;;;;;4165743;28;20492;-74
2023/12/16 00:07:11;;;;;;;12.25;5.13;;;9.00;99.90;;;;;;4169291;28;20123;-74
2023/12/16 00:09:11;;;;;;;12.13;4.68;;;9.00;99.90;;;;;;4163448;28;20034;-74
2023/12/16 00:11:12;;;;;;;16.13;5.50;;;9.00;99.90;;;;;;4149081;28;20064;-74
2023/12/16 00:13:13;;;;;;;15.40;4.57;;;9.00;99.90;;;;;;4145049;28;20125;-74
2023/12/16 00:15:14;;;;;;;10.77;4.90;;;9.00;99.90;;;;;;4144352;28;20139;-73
2023/12/16 00:17:14;;;;;;;12.70;4.97;;;9.00;99.90;;;;;;4147310;28;20040;-73
2023/12/16 00:19:15;;;;;;;15.02;5.40;;;9.00;99.90;;;;;;4146566;28;20639;-73
2023/12/16 00:21:16;;;;;;;13.50;5.65;;;9.00;99.90;;;;;;4147537;28;20041;-73
2023/12/16 00:23:16;;;;;;;11.55;5.00;;;9.00;99.90;;;;;;4165109;28;20068;-74
2023/12/16 00:25:17;;;;;;;12.60;4.60;;;9.00;99.90;;;;;;4147185;28;20044;-73
2023/12/16 00:27:18;;;;;;;17.17;5.40;;;9.00;99.90;;;;;;4148852;28;20064;-74
2023/12/16 00:29:18;;;;;;;12.15;4.70;;;9.00;99.90;;;;;;4143806;28;20052;-72
2023/12/16 00:31:19;;;;;;;11.25;4.93;;;8.90;99.90;;;;;;4158593;28;20048;-72
2023/12/16 00:33:19;;;;;;;10.88;4.72;;;9.00;99.90;;;;;;4145437;28;20128;-72
2023/12/16 00:35:20;;;;;;;15.05;5.18;;;9.00;99.90;;;;;;4153185;28;20037;-71
2023/12/16 00:37:20;;;;;;;13.00;5.05;;;9.00;99.90;;;;;;4155999;28;20072;-72
2023/12/16 00:39:21;;;;;;;14.40;5.18;;;8.90;99.90;;;;;;4147317;28;20483;-71
2023/12/16 00:41:22;;;;;;;16.40;5.30;;;8.90;99.90;;;;;;4145384;28;20475;-72
2023/12/16 00:43:22;;;;;;;9.30;4.55;;;9.00;99.90;;;;;;4147094;28;20525;-72
2023/12/16 00:45:23;;;;;;;13.43;5.13;;;8.90;99.90;;;;;;4144280;28;20818;-72
2023/12/16 00:47:24;;;;;;;18.58;5.80;;;8.90;99.90;;;;;;4142048;28;20038;-73
2023/12/16 00:49:25;;;;;;;12.35;4.88;;;8.90;99.90;;;;;;4142999;28;20171;-72
2023/12/16 00:51:26;;;;;;;13.13;4.95;;;8.80;99.90;;;;;;4146052;28;20505;-71
2023/12/16 00:53:26;;;;;;;15.27;5.38;;;8.80;99.90;;;;;;4144141;28;20073;-73
2023/12/16 00:55:27;;;;;;;12.10;4.97;;;8.90;99.90;;;;;;4150035;28;20053;-72
2023/12/16 00:57:27;;;;;;;15.25;5.13;;;8.80;99.90;;;;;;4148147;28;20569;-72
2023/12/16 00:59:28;;;;;;;14.10;5.22;;;8.80;99.90;;;;;;4161659;28;20124;-72
2023/12/16 01:01:28;;;;;;;15.98;6.05;;;8.80;99.90;;;;;;4152603;28;20029;-71
2023/12/16 01:03:29;;;;;;;14.07;5.05;;;8.80;99.90;;;;;;4150895;28;20242;-72
2023/12/16 01:05:30;;;;;;;13.63;4.90;;;8.80;99.90;;;;;;4127761;28;20104;-72
2023/12/16 01:07:30;;;;;;;14.65;5.47;;;8.80;99.90;;;;;;4145407;28;20033;-71
2023/12/16 01:09:31;;;;;;;12.07;4.97;;;8.80;99.90;;;;;;4147492;28;20072;-72
2023/12/16 01:11:31;;;;;;;10.80;4.70;;;8.80;99.90;;;;;;4144806;28;20590;-72
2023/12/16 01:13:32;;;;;;;14.35;5.15;;;8.80;99.90;;;;;;4174376;28;20095;-72
2023/12/16 01:15:33;;;;;;;18.58;6.43;;;8.80;99.90;;;;;;4162590;28;20491;-71
2023/12/16 01:17:33;;;;;;;10.27;4.90;;;8.80;99.90;;;;;;4159547;28;20022;-72
2023/12/16 01:19:34;;;;;;;13.35;4.88;;;8.80;99.90;;;;;;4171504;28;20041;-72
2023/12/16 01:21:41;;;;;;;19.17;5.38;;;8.80;99.90;;;;;;4153701;28;20034;-71
2023/12/16 01:23:42;;;;;;;16.38;5.20;;;8.80;99.90;;;;;;4142227;28;20141;-72
2023/12/16 01:25:43;;;;;;;11.75;4.57;;;8.70;99.90;;;;;;4141483;28;20068;-73
2023/12/16 01:27:43;;;;;;;14.73;4.80;;;8.80;99.90;;;;;;4147693;28;20072;-72
2023/12/16 01:29:44;;;;;;;9.25;4.22;;;8.80;99.90;;;;;;4144824;28;20166;-72
2023/12/16 01:31:44;;;;;;;14.27;4.60;;;8.80;99.90;;;;;;4145365;28;20038;-72
2023/12/16 01:33:45;;;;;;;8.70;3.55;;;8.80;99.90;;;;;;4146154;28;20056;-72
2023/12/16 01:35:46;;;;;;;14.73;4.90;;;8.80;99.90;;;;;;4146036;28;20045;-72
2023/12/16 01:37:46;;;;;;;11.70;3.95;;;8.80;99.90;;;;;;4145550;28;20074;-72
2023/12/16 01:39:47;;;;;;;13.93;4.70;;;8.70;99.90;;;;;;4146539;28;20038;-73
2023/12/16 01:41:47;;;;;;;15.65;4.72;;;8.80;99.90;;;;;;4141072;28;20038;-71
2023/12/16 01:43:48;;;;;;;14.48;4.55;;;8.80;99.90;;;;;;4151828;28;20593;-72
2023/12/16 01:45:54;;;;;;;14.00;4.65;;;8.80;99.90;;;;;;4150402;28;20025;-72
2023/12/16 01:47:55;;;;;;;11.45;4.43;;;8.70;99.90;;;;;;4153347;28;20093;-73
2023/12/16 01:49:57;;;;;;;12.95;4.45;;;8.70;99.90;;;;;;4156755;28;20056;-73
2023/12/16 01:51:58;;;;;;;8.93;3.80;;;8.70;99.90;;;;;;4165396;28;20479;-73
2023/12/16 01:54:00;;;;;;;12.43;3.80;;;8.70;99.90;;;;;;4164259;28;20050;-73
2023/12/16 01:56:01;;;;;;;10.57;3.30;;;8.70;99.90;;;;;;4168555;28;20049;-73
2023/12/16 01:58:04;;;;;;;10.70;3.83;;;8.70;99.90;;;;;;4163144;28;20093;-73
2023/12/16 02:00:05;;;;;;;12.20;3.80;;;8.80;99.90;;;;;;4165903;28;20029;-74
2023/12/16 02:02:07;;;;;;;13.77;4.07;;;8.70;99.90;;;;;;4145323;28;20038;-73
2023/12/16 02:04:09;;;;;;;9.52;3.85;;;8.70;99.90;;;;;;4159994;28;20939;-73
2023/12/16 02:06:09;;;;;;;13.52;4.15;;;8.70;99.90;;;;;;4162596;28;20512;-73
2023/12/16 02:08:10;;;;;;;8.32;3.65;;;8.70;99.90;;;;;;4157495;28;20056;-73
2023/12/16 02:10:11;;;;;;;12.30;3.85;;;8.70;99.90;;;;;;4164987;28;20049;-73
2023/12/16 02:12:12;;;;;;;11.50;3.78;;;8.70;99.90;;;;;;4171168;28;20033;-73
2023/12/16 02:14:12;;;;;;;10.88;3.83;;;8.70;99.90;;;;;;4161352;28;20087;-73
2023/12/16 02:16:13;;;;;;;10.95;3.22;;;8.70;99.90;;;;;;4166351;28;20041;-73
2023/12/16 02:18:13;;;;;;;7.90;3.30;;;8.80;99.90;;;;;;4165552;28;20033;-74
2023/12/16 02:20:14;;;;;;;11.57;3.63;;;8.70;99.90;;;;;;4161335;28;20486;-73
2023/12/16 02:22:15;;;;;;;13.18;4.07;;;8.70;99.90;;;;;;4164763;28;20041;-73
2023/12/16 02:24:16;;;;;;;10.65;3.53;;;8.70;99.90;;;;;;4164443;28;20529;-73
2023/12/16 02:26:16;;;;;;;11.77;3.53;;;8.70;99.90;;;;;;4168451;28;20112;-73
2023/12/16 02:28:17;;;;;;;15.30;3.80;;;8.80;99.90;;;;;;4164439;28;20124;-73
2023/12/16 02:30:20;;;;;;;10.98;3.75;;;8.80;99.90;;;;;;4165476;28;20036;-73
2023/12/16 02:32:22;;;;;;;12.82;3.67;;;8.70;99.90;;;;;;4153499;28;20033;-73
2023/12/16 02:34:23;;;;;;;12.27;3.25;;;8.80;99.90;;;;;;4159397;28;20029;-73
2023/12/16 02:36:24;;;;;;;9.80;3.10;;;8.80;99.90;;;;;;4168296;28;20846;-73
2023/12/16 02:38:25;;;;;;;10.18;3.22;;;8.80;99.90;;;;;;4162321;28;20112;-73
2023/12/16 02:40:25;;;;;;;10.45;3.25;;;8.80;99.90;;;;;;4165345;28;20445;-73
2023/12/16 02:42:26;;;;;;;9.35;3.03;;;8.80;99.90;;;;;;4162896;28;20743;-73
2023/12/16 02:44:27;;;;;;;11.23;3.45;;;8.80;99.90;;;;;;4157968;28;20067;-73
2023/12/16 02:46:28;;;;;;;9.80;2.90;;;8.80;99.90;;;;;;4162267;28;20914;-73
2023/12/16 02:48:28;;;;;;;12.57;3.72;;;8.80;99.90;;;;;;4170661;28;20032;-73
2023/12/16 02:50:29;;;;;;;14.23;3.28;;;8.80;99.90;;;;;;4173531;28;20037;-74
2023/12/16 02:52:30;;;;;;;11.55;3.03;;;8.80;99.90;;;;;;4169844;28;20033;-73
2023/12/16 02:54:31;;;;;;;12.10;3.10;;;8.70;99.90;;;;;;4158846;28;20041;-73
2023/12/16 02:56:31;;;;;;;8.00;3.00;;;8.70;99.90;;;;;;4162267;28;20089;-74
2023/12/16 02:58:32;;;;;;;14.52;3.53;;;8.80;99.90;;;;;;4166637;28;20041;-73
2023/12/16 03:00:33;;;;;;;7.35;2.78;;;8.80;99.90;;;;;;4161387;28;20129;-71
2023/12/16 03:02:33;;;;;;;7.82;2.85;;;8.80;99.90;;;;;;4157072;28;20036;-72
2023/12/16 03:04:34;;;;;;;13.23;3.45;;;8.80;99.90;;;;;;4154555;28;20028;-71
2023/12/16 03:06:35;;;;;;;10.10;3.08;;;8.80;99.90;;;;;;4163014;28;20080;-71
2023/12/16 03:08:37;;;;;;;12.50;3.60;;;8.70;99.90;;;;;;4163095;28;20033;-72
2023/12/16 03:10:37;;;;;;;13.27;3.17;;;8.70;99.90;;;;;;4162879;28;20034;-73
2023/12/16 03:12:38;;;;;;;8.88;3.13;;;8.80;99.90;;;;;;4159454;28;20071;-73
2023/12/16 03:14:41;;;;;;;7.75;3.00;;;8.70;99.90;;;;;;4171141;28;20033;-73
2023/12/16 03:16:41;;;;;;;13.98;3.00;;;8.70;99.90;;;;;;4163097;28;20506;-73
2023/12/16 03:18:42;;;;;;;7.22;3.03;;;8.70;99.90;;;;;;4160639;28;20087;-73
2023/12/16 03:20:42;;;;;;;13.50;3.33;;;8.70;99.90;;;;;;4158308;28;20029;-73
2023/12/16 03:22:43;;;;;;;10.63;2.90;;;8.70;99.90;;;;;;4163328;28;20454;-73
2023/12/16 03:24:43;;;;;;;18.10;3.38;;;8.70;99.90;;;;;;4157518;28;20030;-73
2023/12/16 03:26:44;;;;;;;8.02;2.95;;;8.70;99.90;;;;;;4164615;28;21717;-73
2023/12/16 03:28:45;;;;;;;10.68;2.97;;;8.70;99.90;;;;;;4161678;28;20453;-73
2023/12/16 03:30:45;;;;;;;8.68;2.75;;;8.70;99.90;;;;;;4163268;28;20374;-73
2023/12/16 03:32:46;;;;;;;12.75;3.22;;;8.70;99.90;;;;;;4161627;28;20033;-73
2023/12/16 03:34:46;;;;;;;10.65;3.30;;;8.70;99.90;;;;;;4166004;28;20029;-73
2023/12/16 03:36:47;;;;;;;11.85;3.08;;;8.70;99.90;;;;;;4163278;28;20119;-73
2023/12/16 03:38:47;;;;;;;7.68;2.70;;;8.70;99.90;;;;;;4162760;28;20148;-73
2023/12/16 03:40:48;;;;;;;14.50;3.85;;;8.70;99.90;;;;;;4164988;28;20040;-73
2023/12/16 03:42:49;;;;;;;11.90;3.13;;;8.70;99.90;;;;;;4159923;28;20038;-73
2023/12/16 03:44:49;;;;;;;13.35;3.83;;;8.70;99.90;;;;;;4156993;28;20064;-73
2023/12/16 03:46:50;;;;;;;7.68;2.63;;;8.70;99.90;;;;;;4155454;28;20036;-73
2023/12/16 03:48:50;;;;;;;9.43;2.75;;;8.60;99.90;;;;;;4151772;28;20052;-73
2023/12/16 03:50:51;;;;;;;19.65;3.80;;;8.60;99.90;;;;;;4142521;28;20090;-73
2023/12/16 03:52:52;;;;;;;10.00;2.92;;;8.60;99.90;;;;;;4161037;28;20033;-73
2023/12/16 03:54:52;;;;;;;7.25;2.88;;;8.60;99.90;;;;;;4146338;28;20060;-73
2023/12/16 03:56:53;;;;;;;9.10;3.00;;;8.60;99.90;;;;;;4143412;28;20035;-73
2023/12/16 03:58:53;;;;;;;12.07;3.28;;;8.60;99.90;;;;;;4148056;28;20041;-73
2023/12/16 04:00:54;;;;;;;11.02;3.10;;;8.60;99.90;;;;;;4162220;28;20025;-73
2023/12/16 04:02:55;;;;;;;13.27;3.15;;;8.60;99.90;;;;;;4162403;28;20066;-73
2023/12/16 04:04:56;;;;;;;8.23;2.30;;;8.60;99.90;;;;;;4159758;28;20029;-73
2023/12/16 04:07:00;;;;;;;11.02;2.90;;;8.60;99.90;;;;;;4167262;28;20040;-73
2023/12/16 04:09:01;;;;;;;11.60;3.10;;;8.50;99.90;;;;;;4158743;28;20083;-71
2023/12/16 04:11:01;;;;;;;8.05;2.95;;;8.50;99.90;;;;;;4157624;28;20025;-71
2023/12/16 04:13:02;;;;;;;7.35;2.17;;;8.50;99.90;;;;;;4154715;28;20034;-72
2023/12/16 04:15:03;;;;;;;8.15;2.92;;;8.50;99.90;;;;;;4154524;28;20046;-72
2023/12/16 04:17:04;;;;;;;10.38;3.33;;;8.50;99.90;;;;;;4143220;28;20168;-72
2023/12/16 04:19:05;;;;;;;10.90;2.60;;;8.50;99.90;;;;;;4146971;28;20033;-72
2023/12/16 04:21:05;;;;;;;5.60;2.50;;;8.50;99.90;;;;;;4143608;28;20034;-73
2023/12/16 04:23:06;;;;;;;9.70;2.60;;;8.50;99.90;;;;;;4145025;28;20518;-73
2023/12/16 04:25:10;;;;;;;7.28;2.60;;;8.60;99.90;;;;;;4144173;28;20080;-73
2023/12/16 04:27:12;;;;;;;7.65;3.00;;;8.50;99.90;;;;;;4146467;28;20038;-73
2023/12/16 04:29:13;;;;;;;9.48;2.40;;;8.60;99.90;;;;;;4144106;28;20053;-72
2023/12/16 04:31:16;;;;;;;10.40;3.00;;;8.50;99.90;;;;;;4144722;28;20479;-72
2023/12/16 04:33:17;;;;;;;5.65;2.55;;;8.50;99.90;;;;;;4146366;28;20767;-72
2023/12/16 04:35:17;;;;;;;10.00;2.55;;;8.50;99.90;;;;;;4145947;28;20034;-72
2023/12/16 04:37:18;;;;;;;10.73;3.40;;;8.50;99.90;;;;;;4157411;28;20053;-72
2023/12/16 04:39:19;;;;;;;8.45;2.95;;;8.50;99.90;;;;;;4148715;28;20037;-71
2023/12/16 04:41:19;;;;;;;10.30;2.90;;;8.50;99.90;;;;;;4158479;28;20033;-71
2023/12/16 04:43:20;;;;;;;14.18;2.70;;;8.40;99.90;;;;;;4165630;28;20037;-71
2023/12/16 04:45:21;;;;;;;8.40;2.85;;;8.40;99.90;;;;;;4162056;28;20041;-71
2023/12/16 04:47:21;;;;;;;17.65;3.00;;;8.50;99.90;;;;;;4159128;28;20030;-71
2023/12/16 04:49:22;;;;;;;8.65;2.70;;;8.40;99.90;;;;;;4155798;28;20425;-72
2023/12/16 04:51:23;;;;;;;11.48;2.60;;;8.50;99.90;;;;;;4168314;28;20029;-72
2023/12/16 04:53:23;;;;;;;14.40;3.40;;;8.40;99.90;;;;;;4161240;28;20123;-71
2023/12/16 04:55:24;;;;;;;10.45;3.08;;;8.50;99.90;;;;;;4166462;28;20426;-71
2023/12/16 04:57:24;;;;;;;10.43;2.85;;;8.40;99.90;;;;;;4160772;28;20482;-71
2023/12/16 04:59:25;;;;;;;10.38;2.95;;;8.40;99.90;;;;;;4160352;28;20554;-71
2023/12/16 05:01:25;;;;;;;9.55;2.53;;;8.40;99.90;;;;;;4158161;28;20514;-73
2023/12/16 05:03:26;;;;;;;8.23;2.72;;;8.40;99.90;;;;;;4145924;28;20509;-73
2023/12/16 05:05:26;;;;;;;7.70;2.53;;;8.40;99.90;;;;;;4145387;28;20710;-72
2023/12/16 05:07:27;;;;;;;9.65;3.13;;;8.40;99.90;;;;;;4154838;28;20064;-71
2023/12/16 05:09:28;;;;;;;11.45;3.92;;;8.40;99.90;;;;;;4161811;28;20417;-72
2023/12/16 05:11:29;;;;;;;8.35;2.92;;;8.40;99.90;;;;;;4158819;28;20038;-72
2023/12/16 05:13:29;;;;;;;11.05;2.92;;;8.40;99.90;;;;;;4159723;28;20057;-72
2023/12/16 05:15:30;;;;;;;9.02;2.92;;;8.40;99.90;;;;;;4145608;28;20041;-72
2023/12/16 05:17:31;;;;;;;6.35;2.90;;;8.40;99.90;;;;;;4149639;28;20117;-72
2023/12/16 05:19:31;;;;;;;10.75;2.85;;;8.40;99.90;;;;;;4153608;28;20030;-72
2023/12/16 05:21:32;;;;;;;15.30;3.50;;;8.40;99.90;;;;;;4146081;28;20447;-72
2023/12/16 05:23:32;;;;;;;10.55;2.53;;;8.40;99.90;;;;;;4160921;28;20040;-72
2023/12/16 05:25:33;;;;;;;14.15;3.72;;;8.40;99.90;;;;;;4143885;28;20108;-72
2023/12/16 05:27:34;;;;;;;12.73;3.13;;;8.40;99.90;;;;;;4146181;28;20068;-72
2023/12/16 05:29:35;;;;;;;8.95;2.70;;;8.40;99.90;;;;;;4149395;28;20461;-72
2023/12/16 05:31:35;;;;;;;7.32;2.50;;;8.40;99.90;;;;;;4145293;28;20037;-71
2023/12/16 05:33:36;;;;;;;13.40;3.30;;;8.40;99.90;;;;;;4144682;28;20123;-73
2023/12/16 05:35:37;;;;;;;10.77;3.40;;;8.40;99.90;;;;;;4145598;28;20026;-72
2023/12/16 05:37:37;;;;;;;7.97;3.05;;;8.30;99.90;;;;;;4146084;28;20092;-72
2023/12/16 05:39:38;;;;;;;7.70;2.90;;;8.40;99.90;;;;;;4147646;28;20037;-71
2023/12/16 05:41:38;;;;;;;9.35;2.60;;;8.40;99.90;;;;;;4145855;28;20030;-73
2023/12/16 05:43:39;;;;;;;9.00;2.78;;;8.40;99.90;;;;;;4160510;28;20036;-71
2023/12/16 05:45:40;;;;;;;9.68;3.20;;;8.40;99.90;;;;;;4158269;28;20121;-71
2023/12/16 05:47:40;;;;;;;8.73;3.35;;;8.40;99.90;;;;;;4149257;28;20032;-68
2023/12/16 05:49:41;;;;;;;9.18;2.58;;;8.40;99.90;;;;;;4162387;28;20057;-71
2023/12/16 05:51:42;;;;;;;7.93;2.75;;;8.40;99.90;;;;;;4164171;28;20030;-72
2023/12/16 05:53:42;;;;;;;7.10;2.60;;;8.40;99.90;;;;;;4162448;28;20033;-71
2023/12/16 05:55:47;;;;;;;13.10;3.03;;;8.40;99.90;;;;;;4170254;28;20033;-70
2023/12/16 05:57:47;;;;;;;7.82;2.97;;;8.50;99.90;;;;;;4161616;28;20476;-71
2023/12/16 05:59:48;;;;;;;9.90;3.13;;;8.40;99.90;;;;;;4160277;28;20080;-71
2023/12/16 06:01:48;;;;;;;9.52;2.72;;;8.40;99.90;;;;;;4154401;28;20029;-71
2023/12/16 06:03:49;;;;;;;8.20;2.60;;;8.40;99.90;;;;;;4155152;28;20041;-71
2023/12/16 06:05:50;;;;;;;7.88;2.58;;;8.50;99.90;;;;;;4152391;28;20053;-71
2023/12/16 06:07:50;;;;;;;8.07;2.90;;;8.40;99.90;;;;;;4161674;28;20099;-70
2023/12/16 06:09:51;;;;;;;14.50;3.45;;;8.40;99.90;;;;;;4159814;28;20046;-70
2023/12/16 06:11:52;;;;;;;15.30;3.38;;;8.40;99.90;;;;;;4158584;28;20041;-71
2023/12/16 06:13:52;;;;;;;14.15;3.47;;;8.50;99.90;;;;;;4153778;28;20037;-70
2023/12/16 06:15:53;;;;;;;11.82;2.90;;;8.40;99.90;;;;;;4155314;28;20480;-71
2023/12/16 06:17:54;;;;;;;13.57;3.50;;;8.40;99.90;;;;;;4157938;28;20041;-70
2023/12/16 06:19:54;;;;;;;9.07;3.00;;;8.40;99.90;;;;;;4156678;28;20033;-71
2023/12/16 06:21:55;;;;;;;7.68;2.70;;;8.50;99.90;;;;;;4155342;28;20033;-71
2023/12/16 06:23:58;;;;;;;11.18;2.95;;;8.50;99.90;;;;;;4156395;28;20029;-70
2023/12/16 06:25:58;;;;;;;11.85;2.78;;;8.40;99.90;;;;;;4154833;28;20041;-71
2023/12/16 06:27:59;;;;;;;8.55;3.15;;;8.50;99.90;;;;;;4156098;28;20038;-70
2023/12/16 06:29:59;;;;;;;8.32;2.90;;;8.50;99.90;;;;;;4154541;28;20518;-72
2023/12/16 06:32:00;;;;;;;10.13;3.08;;;8.40;99.90;;;;;;4161818;28;20280;-72
2023/12/16 06:34:01;;;;;;;10.63;2.97;;;8.50;99.90;;;;;;4163436;28;20167;-72
2023/12/16 06:36:01;;;;;;;9.35;2.97;;;8.50;99.90;;;;;;4163751;28;20652;-71
2023/12/16 06:38:03;;;;;;;14.70;3.17;;;8.50;99.90;;;;;;4155955;28;20879;-72
2023/12/16 06:40:04;;;;;;;11.30;2.88;;;8.50;99.90;;;;;;4152060;28;20161;-73
2023/12/16 06:42:05;;;;;;;10.43;3.20;;;8.50;99.90;;;;;;4162148;28;20461;-72
2023/12/16 06:44:06;;;;;;;12.40;2.75;;;8.40;99.90;;;;;;4163643;28;20040;-71
2023/12/16 06:46:07;;;;;;;9.73;3.08;;;8.50;99.90;;;;;;4158077;28;20033;-71
2023/12/16 06:48:07;;;;;;;7.07;2.80;;;8.50;99.90;;;;;;4162418;28;20034;-72
2023/12/16 06:50:09;;;;;;;10.27;3.15;;;8.50;99.90;;;;;;4160471;28;20038;-72
2023/12/16 06:52:09;;;;;;;8.85;2.92;;;8.50;99.90;;;;;;4160360;28;20163;-71
2023/12/16 06:54:10;;;;;;;8.25;3.00;;;8.50;99.90;;;;;;4162167;28;20195;-70
2023/12/16 06:56:11;;;;;;;10.93;3.08;;;8.50;99.90;;;;;;4163590;28;20394;-72
2023/12/16 06:58:11;;;;;;;11.10;3.40;;;8.50;99.90;;;;;;4157141;28;20123;-71
2023/12/16 07:00:12;;;;;;;6.82;2.38;;;8.50;99.90;;;;;;4157034;28;20120;-72
2023/12/16 07:02:13;;;;;;;13.90;3.50;;;8.50;99.90;;;;;;4150099;28;20544;-73
2023/12/16 07:04:13;;;;;;;11.40;3.75;;;8.50;99.90;;;;;;4155387;28;20041;-72
2023/12/16 07:06:17;;;;;;;15.65;3.15;;;8.50;99.90;;;;;;4145665;28;20038;-72
2023/12/16 07:08:18;;;;;;;10.35;3.10;;;8.50;99.90;;;;;;4160333;28;20064;-71
2023/12/16 07:10:18;;;;;;;14.18;3.30;;;8.50;99.90;;;;;;4155135;28;20036;-72
2023/12/16 07:12:19;;;;;;;12.07;3.60;;;8.50;99.90;;;;;;4166493;28;20036;-71
2023/12/16 07:14:19;;;;;;;11.60;3.10;;;8.40;99.90;;;;;;4159629;28;20103;-71
2023/12/16 07:16:20;;;;;;;8.88;3.10;;;8.40;99.90;;;;;;4152259;28;20037;-72
2023/12/16 07:18:21;;;;;;;10.23;3.35;;;8.40;99.90;;;;;;4157328;28;20038;-73
2023/12/16 07:20:22;;;;;;;10.65;3.10;;;8.40;99.90;;;;;;4162654;28;20045;-73
2023/12/16 07:22:22;;;;;;;9.77;2.95;;;8.40;99.90;;;;;;4157549;28;20182;-73
2023/12/16 07:24:23;;;;;;;13.65;3.03;;;8.40;99.90;;;;;;4158655;28;20030;-73
2023/12/16 07:26:24;;;;;;;9.88;3.45;;;8.40;99.90;;;;;;4158518;28;20421;-73
2023/12/16 07:28:24;;;;;;;12.77;3.75;;;8.30;99.90;;;;;;4158600;28;20045;-72
2023/12/16 07:30:25;;;;;;;7.18;3.00;;;8.30;99.90;;;;;;4153107;28;20120;-73
2023/12/16 07:32:26;;;;;;;11.88;3.42;;;8.30;99.90;;;;;;4151173;28;20037;-73
2023/12/16 07:34:27;;;;;;;13.45;3.17;;;8.30;99.90;;;;;;4151594;28;20036;-77
2023/12/16 07:36:27;;;;;;;6.95;2.97;;;8.20;99.90;;;;;;4132553;28;20038;-75
2023/12/16 07:38:28;;;;;;;8.18;3.00;;;8.30;99.90;;;;;;4151672;28;20053;-75
2023/12/16 07:40:29;;;;;;;16.98;3.28;;;8.30;99.90;;;;;;4152031;28;20037;-76
2023/12/16 07:42:29;;;;;;;10.80;3.47;;;8.20;99.90;;;;;;4151476;28;20491;-73
2023/12/16 07:44:30;;;;;;;11.88;3.85;;;8.20;99.90;;;;;;4154594;28;20383;-76
2023/12/16 07:46:31;;;;;;;11.40;3.53;;;8.20;99.90;;;;;;4153795;28;20030;-76
2023/12/16 07:48:31;;;;;;;10.00;3.55;;;8.20;99.90;;;;;;4154214;28;20045;-75
2023/12/16 07:50:32;;;;;;;7.03;2.63;;;8.20;99.90;;;;;;4150906;28;20056;-76
2023/12/16 07:52:33;;;;;;;9.05;3.20;;;8.20;99.90;;;;;;4157341;28;20113;-76
2023/12/16 07:54:33;;;;;;;10.55;3.50;;;8.20;99.90;;;;;;4163390;28;20067;-77
2023/12/16 07:56:34;;;;;;;8.95;3.65;;;8.20;99.90;;;;;;4153788;28;20996;-76
2023/12/16 07:58:34;;;;;;;13.18;3.20;;;8.20;99.90;;;;;;4156341;28;20029;-76
2023/12/16 08:00:35;;;;;;;11.43;3.72;;;8.20;99.90;;;;;;4148804;28;20060;-76
2023/12/16 08:02:36;;;;;;;11.65;3.53;;;8.20;99.90;;;;;;4175416;28;20029;-76
2023/12/16 08:04:38;;;;;;;11.00;3.83;;;8.20;99.90;;;;;;4155795;28;20045;-76
2023/12/16 08:06:39;;;;;;;11.15;3.45;;;8.20;99.90;;;;;;4157332;28;20038;-76
2023/12/16 08:08:41;;;;;;;10.93;3.70;;;8.20;99.90;;;;;;4158949;28;20115;-75
2023/12/16 08:10:41;;;;;;;8.93;3.00;;;8.20;99.90;;;;;;4159646;28;20084;-75
2023/12/16 08:12:42;;;;;;;9.75;3.35;;;8.20;99.90;;;;;;4160675;28;20482;-75
2023/12/16 08:14:43;;;;;;;13.30;3.88;;;8.20;99.90;;;;;;4157406;28;20060;-76
2023/12/16 08:16:43;;;;;;;18.70;3.65;;;8.20;99.90;;;;;;4155812;28;20024;-76
2023/12/16 08:18:45;;;;;;;11.80;3.60;;;8.30;99.90;;;;;;4157373;28;20139;-74
2023/12/16 08:20:46;;;;;;;11.40;3.72;;;8.20;99.90;;;;;;4153366;28;20041;-76
2023/12/16 08:22:46;;;;;;;10.73;3.25;;;8.30;99.90;;;;;;4153733;28;20021;-76
2023/12/16 08:24:47;;;;;;;10.55;3.70;;;8.30;99.90;;;;;;4155209;28;20119;-76
2023/12/16 08:26:49;;;;;;;15.70;3.78;;;8.20;99.90;;;;;;4161962;28;20030;-74
2023/12/16 08:28:50;;;;;;;9.20;3.35;;;8.30;99.90;;;;;;4152992;28;20029;-76
2023/12/16 08:30:52;;;;;;;16.90;4.18;;;8.30;99.90;;;;;;4149948;28;20044;-76
2023/12/16 08:32:53;;;;;;;9.00;3.13;;;8.30;99.90;;;;;;4154440;28;20478;-75
2023/12/16 08:34:53;;;;;;;9.02;3.67;;;8.40;99.90;;;;;;4152782;28;20071;-76
2023/12/16 08:36:54;;;;;;;11.23;3.22;;;8.40;99.90;;;;;;4152534;28;20053;-76
2023/12/16 08:38:55;;;;;;;16.40;3.65;;;8.40;99.90;;;;;;4150937;28;20030;-76
2023/12/16 08:40:57;;;;;;;10.70;3.40;;;8.50;99.90;;;;;;4159049;28;20022;-76
2023/12/16 08:42:58;;;;;;;10.70;3.58;;;8.40;99.90;;;;;;4164492;28;20376;-74
2023/12/16 08:44:58;;;;;;;12.10;3.65;;;8.50;99.90;;;;;;4152883;28;20044;-76
2023/12/16 08:47:00;;;;;;;13.57;3.22;;;8.50;99.90;;;;;;4156420;28;20037;-75
2023/12/16 08:49:00;;;;;;;16.33;3.80;;;8.60;99.90;;;;;;4170240;28;20063;-76
2023/12/16 08:51:01;;;;;;;11.95;3.47;;;8.60;99.90;;;;;;4167302;28;20501;-72
2023/12/16 08:53:02;;;;;;;12.57;3.55;;;8.60;99.90;;;;;;4154279;28;20049;-72
2023/12/16 08:55:06;;;;;;;14.98;3.13;;;8.50;99.90;;;;;;4153991;28;20123;-73
2023/12/16 08:57:06;;;;;;;10.93;3.20;;;8.50;99.90;;;;;;4153504;28;20103;-72
2023/12/16 08:59:07;;;;;;;11.52;3.03;;;8.60;99.90;;;;;;4155536;28;20045;-73
2023/12/16 09:01:07;;;;;;;13.55;3.85;;;8.60;99.90;;;;;;4154968;28;20125;-72
2023/12/16 09:03:08;;;;;;;10.13;3.03;;;8.60;99.90;;;;;;4160068;28;20490;-73
2023/12/16 09:05:09;;;;;;;11.98;3.25;;;8.60;99.90;;;;;;4154633;28;20034;-73
2023/12/16 09:07:11;;;;;;;12.45;3.53;;;8.60;99.90;;;;;;4160423;28;20025;-72
2023/12/16 09:09:11;;;;;;;14.20;3.60;;;8.60;99.90;;;;;;4155592;28;20521;-74
2023/12/16 09:11:12;;;;;;;13.20;3.15;;;8.60;99.90;;;;;;4156272;28;20030;-74
2023/12/16 09:13:13;;;;;;;15.18;3.97;;;8.60;99.90;;;;;;4153867;28;20033;-73
2023/12/16 09:15:15;;;;;;;14.00;3.20;;;8.60;99.90;;;;;;4152917;28;20033;-72
2023/12/16 09:17:16;;;;;;;12.30;3.22;;;8.60;99.90;;;;;;4157924;28;20137;-73
2023/12/16 09:19:17;;;;;;;12.50;3.22;;;8.60;99.90;;;;;;4156010;28;20041;-73
2023/12/16 09:21:18;;;;;;;11.13;2.72;;;8.70;99.90;;;;;;4154235;28;20037;-72
2023/12/16 09:23:18;;;;;;;9.98;2.72;;;8.70;99.90;;;;;;4153743;28;20045;-73
2023/12/16 09:25:19;;;;;;;8.90;2.70;;;8.70;99.90;;;;;;4146678;28;20061;-72
2023/12/16 09:27:20;;;;;;;10.00;2.90;;;8.80;99.90;;;;;;4155272;28;20080;-72
2023/12/16 09:29:21;;;;;;;8.65;2.40;;;8.70;99.90;;;;;;4159348;28;20107;-72
2023/12/16 09:31:21;;;;;;;14.10;3.42;;;8.80;99.90;;;;;;4153097;28;20034;-73
2023/12/16 09:33:22;;;;;;;11.73;3.17;;;8.80;99.90;;;;;;4162663;28;20037;-72
2023/12/16 09:35:22;;;;;;;12.23;3.67;;;8.80;99.90;;;;;;4150740;28;20099;-72
2023/12/16 09:37:23;;;;;;;10.75;3.35;;;8.80;99.90;;;;;;4157483;28;20056;-72
2023/12/16 09:39:24;;;;;;;13.10;3.25;;;8.90;99.90;;;;;;4159235;28;20029;-73
2023/12/16 09:41:28;;;;;;;11.60;2.88;;;8.90;99.90;;;;;;4158510;28;20367;-73
2023/12/16 09:43:35;;;;;;;11.82;2.80;;;9.00;99.90;;;;;;4162759;28;20486;-73
2023/12/16 09:45:36;;;;;;;14.27;3.55;;;9.00;99.90;;;;;;4165178;28;20041;-73
2023/12/16 09:47:37;;;;;;;10.77;2.72;;;9.10;99.90;;;;;;4155198;28;20032;-73
2023/12/16 09:49:40;;;;;;;11.05;3.28;;;9.20;99.90;;;;;;4155846;28;20042;-72
2023/12/16 09:51:42;;;;;;;19.92;4.00;;;9.20;99.90;;;;;;4150214;28;20037;-73
2023/12/16 09:53:43;;;;;;;12.95;3.53;;;9.30;99.90;;;;;;4162839;28;20798;-72
2023/12/16 09:55:44;;;;;;;9.38;3.03;;;9.40;99.90;;;;;;4160815;28;20117;-72
2023/12/16 09:57:46;;;;;;;14.55;2.97;;;9.50;99.90;;;;;;4164894;28;20045;-74
2023/12/16 09:59:48;;;;;;;13.20;3.35;;;9.50;99.90;;;;;;4159128;28;20044;-72
2023/12/16 10:02:02;;;;;;;9.98;2.72;;;9.50;99.90;;;;;;4160710;28;20056;-71
2023/12/16 10:04:06;;;;;;;9.50;2.78;;;9.60;99.90;;;;;;4134921;28;20037;-71
2023/12/16 10:06:08;;;;;;;11.68;2.92;;;9.60;99.90;;;;;;4149792;28;20048;-71
2023/12/16 10:08:09;;;;;;;10.43;3.30;;;9.60;99.90;;;;;;4157128;28;20133;-71
2023/12/16 10:10:12;;;;;;;11.77;2.92;;;9.60;99.90;;;;;;4157773;28;20573;-73
2023/12/16 10:12:12;;;;;;;11.50;2.65;;;9.60;99.90;;;;;;4154443;28;20049;-75
2023/12/16 10:14:13;;;;;;;9.50;2.60;;;9.70;99.90;;;;;;4161771;28;20033;-74
2023/12/16 10:16:17;;;;;;;11.73;2.65;;;9.70;99.90;;;;;;4150412;28;20057;-74
2023/12/16 10:18:18;;;;;;;11.70;2.67;;;9.70;99.90;;;;;;4167980;28;20469;-74
2023/12/16 10:20:19;;;;;;;11.88;2.90;;;9.80;99.90;;;;;;4168326;28;20037;-70
2023/12/16 10:22:19;;;;;;;12.45;2.85;;;9.90;99.90;;;;;;4163971;28;20402;-70
2023/12/16 10:24:20;;;;;;;11.88;3.40;;;9.90;99.90;;;;;;4155328;28;20030;-73
2023/12/16 10:26:21;;;;;;;12.13;2.70;;;9.80;99.90;;;;;;4153937;28;20038;-70
2023/12/16 10:28:21;;;;;;;13.40;3.20;;;9.90;99.90;;;;;;4161176;28;20502;-71
2023/12/16 10:30:22;;;;;;;8.75;2.58;;;9.90;99.90;;;;;;4157443;28;20068;-72
2023/12/16 10:32:22;;;;;;;13.27;3.20;;;9.90;99.90;;;;;;4160704;28;20492;-72